Current Weather

John F Kennedy Intl

New York, New York (KJFK)

Report from: Monday, June 27, 2022 7:51 AM EDT
Current time: Monday, June 27, 2022 8:26 AM EDT

Nearby weather
Weather history
Weather forecast

Temperature22.2°C (72.0°F)
Dew point19.4°C (66.9°F)
Winds 8 kts (4.1 m/s, 9.2 mph) South (190°)
Visibility10 mi. (16.1 km)
Clouds Few clouds 2,000 ft. (610 m)
Ceiling: Broken clouds 5,000 ft. (1,524 m)
Broken clouds 10,000 ft. (3,048 m)
Altimeter29.97 in.Hg (1015 mB)
Relative humidity84 %
Density altitude1,089 ft. (332 m)
Sea-level pressure101.5 kPa (1015 mB, 29.97 in.Hg)
Max temp last 6 hours22.2°C (72.0°F)
Min temp last 6 hours21.1°C (70.0°F)
Remarks Automated weather observing station with precipitation discriminator
Pressure rising more quickly
Flight conditions Visual Meteorological Conditions
Raw dataKJFK 271151Z 19008KT 10SM FEW020 BKN050 BKN100 22/19 A2997 RMK AO2 SLP148 T02220194 10222 20211 53002
An error has occurred. This application may no longer respond until reloaded. Reload 🗙